Platzwetter Flugplatz Wels

Flugwetter Linz LOWL

[Quelle: ADDS]
METAR
LOWL 161250Z 09003KT 050V120 CAVOK 07/03 Q1012 NOSIG =
LOWL 161115Z 1612/1712 09004KT CAVOK TX07/1614Z TNM00/1702Z BECMG 1620/1622 4000 MIFG NSC BECMG 1622/1624 0600 FEW002 BECMG 1700/1703 0300 FZFG VV001 TEMPO 1709/1712 2000 BR BKN003
TAF
LOWL 161115Z 1612/1712 09004KT CAVOK TX07/1614Z TNM00/1702Z BECMG 1620/1622 4000 MIFG NSC BECMG 1622/1624 0600 FEW002 BECMG 1700/1703 0300 FZFG VV001 TEMPO 1709/1712 2000 BR BKN003 =

Flugwetter Salzburg LOWS

[Quelle: ADDS]
METAR
LOWS 161250Z 14011KT CAVOK 10/00 Q1010 NOSIG =
LOWS 161115Z 1612/1712 15007KT CAVOK TX10/1712Z TN04/1705Z TEMPO 1618/1712 15015G25KT
TAF
LOWS 161115Z 1612/1712 15007KT CAVOK TX10/1712Z TN04/1705Z TEMPO 1618/1712 15015G25KT =

Wind - Verlauf

Windrichtung - Verlauf

Temperatur - Verlauf

Relative Luftfeuchtigkeit - Verlauf

Luftdruck - Verlauf

Cookies erleichtern die Bereitstellung unserer Dienste. Mit der Nutzung unserer Dienste erklären Sie sich damit einverstanden, dass wir Cookies verwenden.
Weitere Informationen Ok